Chicago, Illinois
Traffic Map
Current Weather Conditions
Chicago, Illinois
Overcast Drizzle
Overcast
43°
Feels Like: 38°
Wind Chill: 38° Ceiling: 700
Heat Index: 43° Visibility: 6mi
Dew Point: 42° Wind: 9mph
Humidity: 97% Direction: 230° (SW)
Pressure: 29.93in Gusts: 0mph
Raw Report DataKMDW 180953Z 23008KT 6SM -DZ BR OVC007 06/06 A2993 RMK AO2 DZB07 SLP142 P0000 T00610056
Traffic Incident Summary
Active as of:
Severity:
Category:
InformationThere was an issue retrieving the traffic information for this location. Please try a different location or try again shortly.
Advertisements